Terminal Aerodrome Forecast
Issued by NWS Sterling, VA

Current Version | Previous Version | Text Only | Print | Product List | Glossary Off
Versions: 1 2 3 4 5 6 7 8 9 10 11 12 13 14 15 16 17 18 19 20 21

000
FTUS41 KLWX 091736
TAFDCA
TAF
KDCA 091736Z 0918/1018 30015G26KT P6SM FEW040
     FM092300 29013G18KT P6SM FEW050
     FM100300 29010KT P6SM FEW150
     FM101500 29010KT P6SM FEW050=

USA.gov is the U.S. government's official web portal to all federal, state and local government web resources and services.